Time;durP1;ratioP1;P1;durP2;ratioP2;P2;SDS_P1;SDS_P2;PMS_P1;PMS_P2;Temp;Humidity;BMP_temperature;BMP_pressure;BME280_temperature;BME280_humidity;BME280_pressure;Samples;Min_cycle;Max_cycle;Signal;HPM_P1;HPM_P2
2022/09/03 00:01:21;;;;;;;9.93;6.72;;;18.30;99.90;;;;;;4998323;28;20085;-75
2022/09/03 00:03:58;;;;;;;11.75;6.65;;;18.30;99.90;;;;;;4995850;28;20022;-78
2022/09/03 00:06:32;;;;;;;13.23;6.55;;;18.30;99.90;;;;;;4994631;28;20022;-74
2022/09/03 00:09:42;;;;;;;11.80;6.60;;;18.30;99.90;;;;;;4994130;28;20444;-75
2022/09/03 00:12:20;;;;;;;14.57;6.95;;;18.30;99.90;;;;;;4972547;28;20030;-76
2022/09/03 00:14:56;;;;;;;13.38;7.00;;;18.20;99.90;;;;;;4974969;28;20490;-75
2022/09/03 00:17:29;;;;;;;14.07;7.75;;;18.20;99.90;;;;;;4983506;28;20042;-77
2022/09/03 00:20:04;;;;;;;12.77;7.20;;;18.20;99.90;;;;;;4993096;28;20685;-77
2022/09/03 00:22:34;;;;;;;13.27;7.35;;;18.20;99.90;;;;;;4990826;28;20034;-75
2022/09/03 00:25:04;;;;;;;13.35;7.50;;;18.10;99.90;;;;;;4992828;28;20034;-73
2022/09/03 00:27:35;;;;;;;15.80;7.47;;;18.10;99.90;;;;;;4990012;28;20758;-72
2022/09/03 00:30:05;;;;;;;13.43;7.47;;;18.10;99.90;;;;;;4993067;28;20034;-76
2022/09/03 00:32:45;;;;;;;15.48;8.45;;;18.10;99.90;;;;;;4992981;28;20275;-72
2022/09/03 00:35:56;;;;;;;12.55;8.25;;;18.10;99.90;;;;;;4976259;28;20440;-72
2022/09/03 00:38:22;;;;;;;13.10;7.88;;;18.20;99.90;;;;;;4934764;28;20051;-73
2022/09/03 00:41:09;;;;;;;12.57;7.93;;;18.20;99.90;;;;;;4950765;29;20431;-75
2022/09/03 00:43:46;;;;;;;13.35;7.50;;;18.10;99.90;;;;;;4950621;29;20043;-77
2022/09/03 00:46:41;;;;;;;13.63;7.07;;;18.00;99.90;;;;;;4954068;29;20070;-75
2022/09/03 00:49:33;;;;;;;13.50;7.95;;;18.00;99.90;;;;;;4953500;28;20082;-73
2022/09/03 00:52:05;;;;;;;16.92;8.18;;;18.00;99.90;;;;;;4953568;29;20131;-74
2022/09/03 00:54:49;;;;;;;14.60;8.20;;;17.90;99.90;;;;;;4954130;29;20118;-75
2022/09/03 00:57:26;;;;;;;13.63;8.23;;;18.00;99.90;;;;;;4954006;29;20305;-77
2022/09/03 01:00:12;;;;;;;16.13;8.18;;;18.00;99.90;;;;;;4953397;29;20506;-75
2022/09/03 01:03:05;;;;;;;15.65;9.40;;;17.90;99.90;;;;;;4953512;29;20054;-75
2022/09/03 01:06:10;;;;;;;16.98;9.55;;;17.90;99.90;;;;;;4953442;29;20044;-69
2022/09/03 01:08:58;;;;;;;20.52;10.68;;;18.00;99.90;;;;;;4952945;28;20035;-73
2022/09/03 01:11:27;;;;;;;24.55;10.63;;;17.90;99.90;;;;;;4953725;29;20552;-73
2022/09/03 01:14:07;;;;;;;15.93;10.30;;;17.90;99.90;;;;;;4958511;28;20106;-64
2022/09/03 01:16:45;;;;;;;20.85;10.13;;;17.90;99.90;;;;;;5014153;28;20033;-68
2022/09/03 01:19:26;;;;;;;19.88;8.93;;;17.90;99.90;;;;;;5013803;28;20768;-74
2022/09/03 01:22:18;;;;;;;17.98;10.90;;;17.90;99.90;;;;;;5009748;28;20077;-68
2022/09/03 01:25:16;;;;;;;22.45;12.05;;;17.90;99.90;;;;;;5014176;28;20038;-67
2022/09/03 01:28:24;;;;;;;20.00;11.32;;;17.80;99.90;;;;;;4953285;29;20138;-75
2022/09/03 01:31:13;;;;;;;24.15;12.23;;;17.70;99.90;;;;;;4877052;29;20036;-77
2022/09/03 01:33:49;;;;;;;20.65;11.27;;;17.70;99.90;;;;;;4803857;29;20046;-74
2022/09/03 01:36:29;;;;;;;19.50;10.90;;;17.60;99.90;;;;;;4804228;29;20106;-78
2022/09/03 01:39:00;;;;;;;19.73;11.95;;;17.60;99.90;;;;;;4804102;29;20059;-76
2022/09/03 01:44:57;;;;;;;18.20;11.93;;;17.60;99.90;;;;;;4803187;29;20058;-74
2022/09/03 01:47:31;;;;;;;20.25;11.02;;;17.50;99.90;;;;;;4803746;29;20043;-77
2022/09/03 01:50:34;;;;;;;21.30;11.23;;;17.60;99.90;;;;;;4804075;29;20042;-69
2022/09/03 01:53:15;;;;;;;19.13;10.70;;;17.50;99.90;;;;;;4803765;29;20228;-76
2022/09/03 01:56:12;;;;;;;22.35;11.93;;;17.50;99.90;;;;;;4803704;29;20058;-73
2022/09/03 01:58:45;;;;;;;21.60;11.30;;;17.50;99.90;;;;;;4803259;29;20078;-72
2022/09/03 02:01:23;;;;;;;18.35;10.95;;;17.50;99.90;;;;;;4803548;29;20091;-76
2022/09/03 02:03:50;;;;;;;24.27;11.77;;;17.50;99.90;;;;;;4828724;29;20121;-73
2022/09/03 02:06:19;;;;;;;23.60;10.98;;;17.50;99.90;;;;;;4840019;29;20033;-75
2022/09/03 02:08:45;;;;;;;19.17;12.07;;;17.50;99.90;;;;;;4920907;29;20067;-70
2022/09/03 02:11:11;;;;;;;22.23;12.30;;;17.40;99.90;;;;;;4983960;28;20034;-75
2022/09/03 02:13:40;;;;;;;20.42;11.65;;;17.40;99.90;;;;;;5012466;28;20045;-74
2022/09/03 02:16:15;;;;;;;19.58;12.15;;;17.40;99.90;;;;;;5012843;28;20057;-72
2022/09/03 02:18:47;;;;;;;24.45;12.20;;;17.40;99.90;;;;;;5012229;28;20115;-67
2022/09/03 02:21:18;;;;;;;20.25;12.45;;;17.30;99.90;;;;;;5012051;28;20022;-76
2022/09/03 02:23:45;;;;;;;24.95;13.40;;;17.40;99.90;;;;;;5012776;28;20034;-75
2022/09/03 02:26:13;;;;;;;25.90;14.15;;;17.40;99.90;;;;;;5012900;28;20033;-68
2022/09/03 02:28:39;;;;;;;20.38;13.63;;;17.40;99.90;;;;;;5012615;28;20037;-74
2022/09/03 02:31:05;;;;;;;21.88;13.98;;;17.40;99.90;;;;;;5012307;28;20018;-76
2022/09/03 02:33:38;;;;;;;21.85;13.95;;;17.40;99.90;;;;;;5012465;28;20049;-75
2022/09/03 02:36:07;;;;;;;23.85;14.52;;;17.40;99.90;;;;;;5012450;28;20022;-77
2022/09/03 02:38:33;;;;;;;24.05;15.40;;;17.40;99.90;;;;;;5012621;28;20077;-65
2022/09/03 02:40:59;;;;;;;19.00;13.43;;;17.50;99.90;;;;;;5012635;28;20022;-64
2022/09/03 02:43:38;;;;;;;24.70;14.85;;;17.40;99.90;;;;;;5011987;28;20026;-68
2022/09/03 02:46:08;;;;;;;20.60;13.75;;;17.40;99.90;;;;;;5012667;28;20029;-70
2022/09/03 02:48:35;;;;;;;22.75;15.15;;;17.40;99.90;;;;;;5012234;28;20053;-64
2022/09/03 02:51:00;;;;;;;23.25;14.30;;;17.40;99.90;;;;;;5012432;28;20477;-63
2022/09/03 02:53:27;;;;;;;25.70;14.63;;;17.40;99.90;;;;;;5012644;28;20117;-67
2022/09/03 02:55:58;;;;;;;21.55;13.85;;;17.40;99.90;;;;;;5012705;28;20457;-68
2022/09/03 02:58:25;;;;;;;23.58;14.95;;;17.40;99.90;;;;;;5011943;28;20385;-64
2022/09/03 03:00:51;;;;;;;27.75;14.27;;;17.40;99.90;;;;;;5012180;28;20022;-67
2022/09/03 03:03:17;;;;;;;20.30;14.20;;;17.30;99.90;;;;;;5012123;28;20117;-73
2022/09/03 03:05:45;;;;;;;21.83;14.93;;;17.30;99.90;;;;;;5012349;28;20018;-64
2022/09/03 03:08:13;;;;;;;22.70;13.68;;;17.40;99.90;;;;;;5012122;28;20117;-66
2022/09/03 03:10:46;;;;;;;24.30;15.05;;;17.40;99.90;;;;;;5011484;28;20029;-69
2022/09/03 03:13:12;;;;;;;21.17;14.45;;;17.30;99.90;;;;;;5012287;28;20377;-68
2022/09/03 03:15:38;;;;;;;24.35;14.38;;;17.40;99.90;;;;;;5012522;28;20061;-68
2022/09/03 03:18:04;;;;;;;24.85;14.90;;;17.40;99.90;;;;;;5011899;28;20061;-65
2022/09/03 03:20:30;;;;;;;22.00;15.27;;;17.40;99.90;;;;;;5011564;28;20429;-75
2022/09/03 03:22:56;;;;;;;21.13;13.57;;;17.30;99.90;;;;;;5012008;28;20037;-76
2022/09/03 03:25:22;;;;;;;27.42;14.73;;;17.30;99.90;;;;;;5012237;28;20113;-74
2022/09/03 03:27:47;;;;;;;20.55;13.20;;;17.40;99.90;;;;;;5012261;28;20479;-76
2022/09/03 03:30:13;;;;;;;27.90;16.25;;;17.40;99.90;;;;;;5012436;28;20022;-75
2022/09/03 03:32:39;;;;;;;25.40;16.23;;;17.30;99.90;;;;;;5016025;28;20080;-75
2022/09/03 03:35:06;;;;;;;21.50;13.48;;;17.30;99.90;;;;;;5016104;28;20075;-78
2022/09/03 03:37:34;;;;;;;24.15;15.38;;;17.30;99.90;;;;;;5015387;28;20038;-76
2022/09/03 03:40:00;;;;;;;20.13;13.75;;;17.30;99.90;;;;;;5015906;28;20029;-75
2022/09/03 03:42:26;;;;;;;23.38;14.00;;;17.30;99.90;;;;;;5015605;28;20040;-77
2022/09/03 03:44:51;;;;;;;18.52;12.85;;;17.30;99.90;;;;;;5016012;28;20121;-76
2022/09/03 03:47:17;;;;;;;18.83;12.90;;;17.30;99.90;;;;;;5015513;28;20042;-77
2022/09/03 03:49:43;;;;;;;20.95;12.02;;;17.30;99.90;;;;;;5015489;28;20139;-75
2022/09/03 03:52:10;;;;;;;25.15;13.27;;;17.30;99.90;;;;;;5015208;28;20026;-74
2022/09/03 03:54:35;;;;;;;25.48;14.40;;;17.30;99.90;;;;;;5015350;28;20542;-78
2022/09/03 03:57:01;;;;;;;22.80;14.88;;;17.30;99.90;;;;;;5015496;28;20033;-77
2022/09/03 03:59:27;;;;;;;23.48;13.63;;;17.20;99.90;;;;;;5015374;28;20025;-71
2022/09/03 04:01:56;;;;;;;22.45;13.07;;;17.20;99.90;;;;;;5015118;28;20032;-76
2022/09/03 04:04:22;;;;;;;21.02;13.45;;;17.20;99.90;;;;;;5014742;28;20068;-75
2022/09/03 04:06:47;;;;;;;22.98;14.95;;;17.20;99.90;;;;;;5015327;28;20774;-78
2022/09/03 04:09:13;;;;;;;23.58;13.52;;;17.20;99.90;;;;;;5014828;28;20030;-75
2022/09/03 04:11:39;;;;;;;25.35;14.15;;;17.30;99.90;;;;;;5015057;28;20022;-72
2022/09/03 04:14:05;;;;;;;23.02;14.48;;;17.20;99.90;;;;;;5015066;28;20109;-77
2022/09/03 04:16:31;;;;;;;23.48;13.77;;;17.40;99.90;;;;;;5015499;28;20026;-71
2022/09/03 04:18:57;;;;;;;22.48;13.52;;;17.60;99.90;;;;;;5014633;28;20500;-78
2022/09/03 04:21:25;;;;;;;21.80;12.05;;;17.80;99.90;;;;;;5015169;28;20113;-78
2022/09/03 04:23:52;;;;;;;21.60;14.15;;;17.90;99.90;;;;;;5015233;28;20029;-73
2022/09/03 04:26:30;;;;;;;20.90;13.95;;;18.30;99.90;;;;;;5010569;28;20415;-77
2022/09/03 04:28:56;;;;;;;23.17;13.95;;;18.60;99.90;;;;;;5012275;28;20034;-77
2022/09/03 04:31:22;;;;;;;22.30;13.73;;;18.80;99.90;;;;;;5015028;28;20038;-78
2022/09/03 04:33:50;;;;;;;20.77;13.75;;;18.80;99.90;;;;;;5014768;28;20057;-73
2022/09/03 04:36:27;;;;;;;19.05;12.50;;;18.70;99.90;;;;;;5014920;28;20026;-70
2022/09/03 04:38:54;;;;;;;18.20;13.13;;;18.50;99.90;;;;;;5014884;28;20085;-77
2022/09/03 04:41:26;;;;;;;20.33;12.73;;;19.00;99.90;;;;;;5014858;28;20100;-78
2022/09/03 04:43:54;;;;;;;21.27;13.50;;;19.10;99.90;;;;;;5013570;28;20512;-77
2022/09/03 04:46:22;;;;;;;22.98;13.65;;;19.00;99.90;;;;;;5014498;28;20060;-78
2022/09/03 04:48:50;;;;;;;19.35;12.95;;;19.00;99.90;;;;;;5014092;28;20132;-75
2022/09/03 04:51:27;;;;;;;23.90;13.20;;;19.00;99.90;;;;;;5014387;28;20546;-67
2022/09/03 04:53:59;;;;;;;20.15;13.82;;;18.80;99.90;;;;;;5014476;28;20116;-76
2022/09/03 04:56:33;;;;;;;21.02;13.68;;;18.70;99.90;;;;;;5013919;28;20080;-76
2022/09/03 04:59:02;;;;;;;23.27;13.50;;;18.60;99.90;;;;;;5010974;28;20042;-75
2022/09/03 05:01:31;;;;;;;24.48;14.43;;;18.50;99.90;;;;;;5013228;28;20095;-78
2022/09/03 05:03:57;;;;;;;25.20;14.05;;;18.40;99.90;;;;;;5012965;28;20101;-80
2022/09/03 05:06:24;;;;;;;23.17;13.60;;;18.40;99.90;;;;;;5012469;28;20026;-78
2022/09/03 05:08:52;;;;;;;27.65;14.27;;;18.40;99.90;;;;;;5013292;28;20018;-72
2022/09/03 05:11:18;;;;;;;24.45;14.93;;;18.30;99.90;;;;;;5013379;28;20499;-78
2022/09/03 05:13:48;;;;;;;27.40;13.88;;;18.20;99.90;;;;;;5013416;28;20051;-77
2022/09/03 05:16:15;;;;;;;18.27;12.63;;;18.10;99.90;;;;;;5003844;28;20049;-78
2022/09/03 05:18:41;;;;;;;20.95;12.13;;;18.10;99.90;;;;;;5012527;28;20147;-73
2022/09/03 05:21:09;;;;;;;16.75;9.55;;;18.30;99.90;;;;;;5013625;28;20066;-79
2022/09/03 05:23:40;;;;;;;14.35;9.95;;;18.30;99.90;;;;;;5013723;28;20037;-79
2022/09/03 05:26:08;;;;;;;14.60;9.07;;;18.30;99.90;;;;;;5014348;28;20480;-74
2022/09/03 05:28:36;;;;;;;19.77;10.35;;;18.60;99.90;;;;;;5013307;28;20477;-78
2022/09/03 05:31:13;;;;;;;16.02;9.68;;;18.70;99.90;;;;;;5013887;28;20032;-77
2022/09/03 05:33:41;;;;;;;15.55;8.85;;;18.80;99.90;;;;;;5013371;28;20026;-74
2022/09/03 05:36:10;;;;;;;16.58;10.18;;;19.10;99.90;;;;;;5013134;28;20539;-73
2022/09/03 05:38:36;;;;;;;16.83;10.25;;;19.30;99.90;;;;;;5013606;28;20140;-79
2022/09/03 05:41:05;;;;;;;16.17;10.13;;;19.50;99.90;;;;;;5013261;28;20092;-78
2022/09/03 05:43:32;;;;;;;13.40;8.48;;;19.70;99.90;;;;;;5012855;28;20699;-76
2022/09/03 05:45:59;;;;;;;16.60;8.90;;;19.90;99.90;;;;;;5011198;28;20045;-78
2022/09/03 05:48:29;;;;;;;18.98;10.30;;;19.70;99.90;;;;;;5012430;28;20053;-78
2022/09/03 05:51:19;;;;;;;22.02;9.82;;;19.70;99.90;;;;;;5012929;28;20022;-77
2022/09/03 05:53:47;;;;;;;14.88;9.45;;;19.80;99.90;;;;;;5002863;28;20026;-78
2022/09/03 05:56:18;;;;;;;18.10;10.25;;;20.10;99.90;;;;;;4993662;28;20015;-76
2022/09/03 05:58:49;;;;;;;17.85;9.70;;;20.20;99.90;;;;;;4996667;28;20040;-77
2022/09/03 06:01:24;;;;;;;15.98;9.88;;;20.30;99.90;;;;;;4995726;28;20051;-77
2022/09/03 06:03:58;;;;;;;15.75;9.30;;;20.20;99.90;;;;;;5012366;28;20044;-77
2022/09/03 06:06:25;;;;;;;17.15;9.85;;;20.30;99.90;;;;;;5010065;28;20057;-78
2022/09/03 06:08:54;;;;;;;24.60;12.95;;;20.30;99.90;;;;;;5008504;28;20046;-72
2022/09/03 06:11:22;;;;;;;24.63;16.63;;;20.10;99.90;;;;;;4995025;28;20025;-73
2022/09/03 06:13:47;;;;;;;33.35;23.88;;;20.10;99.90;;;;;;4995167;28;20023;-66
2022/09/03 06:16:14;;;;;;;31.23;20.92;;;20.10;99.90;;;;;;4992830;28;20081;-80
2022/09/03 06:18:40;;;;;;;29.98;21.05;;;19.90;99.90;;;;;;4998307;28;20088;-78
2022/09/03 06:21:07;;;;;;;25.77;18.23;;;20.00;99.90;;;;;;5011946;28;20025;-67
2022/09/03 06:23:34;;;;;;;29.90;19.90;;;19.90;99.90;;;;;;5012316;28;20056;-72
2022/09/03 06:26:04;;;;;;;23.98;15.73;;;20.10;99.90;;;;;;5012661;28;20026;-78
2022/09/03 06:28:33;;;;;;;18.30;10.90;;;20.30;99.90;;;;;;5009727;28;20022;-78
2022/09/03 06:31:01;;;;;;;19.60;11.77;;;20.10;99.90;;;;;;5013199;28;20101;-80
2022/09/03 06:33:31;;;;;;;20.02;11.88;;;20.10;99.90;;;;;;5012554;28;20022;-79
2022/09/03 06:35:58;;;;;;;17.80;11.43;;;20.30;99.90;;;;;;5013402;28;20380;-77
2022/09/03 06:38:34;;;;;;;18.13;10.27;;;20.40;99.90;;;;;;5011953;28;20092;-79
2022/09/03 06:41:04;;;;;;;19.17;10.98;;;20.70;99.90;;;;;;5012634;28;20017;-79
2022/09/03 06:43:32;;;;;;;16.17;10.20;;;20.90;99.90;;;;;;5012615;28;20033;-79
2022/09/03 06:46:00;;;;;;;20.77;10.57;;;20.80;99.90;;;;;;5012847;28;20075;-80
2022/09/03 06:48:28;;;;;;;19.70;9.63;;;21.00;99.90;;;;;;5012293;28;20476;-79
2022/09/03 06:51:06;;;;;;;21.00;10.55;;;21.00;99.90;;;;;;5012053;28;20564;-80
2022/09/03 06:53:34;;;;;;;18.90;9.43;;;21.10;99.90;;;;;;5011848;28;20022;-80
2022/09/03 06:56:03;;;;;;;16.52;7.93;;;21.30;99.90;;;;;;5003408;28;20026;-77
2022/09/03 06:58:37;;;;;;;14.85;8.45;;;21.50;99.90;;;;;;5011291;28;20041;-72
2022/09/03 07:01:06;;;;;;;19.83;10.55;;;21.60;99.90;;;;;;5008885;28;20029;-78
2022/09/03 07:03:33;;;;;;;13.75;8.18;;;21.50;99.90;;;;;;4999050;28;20133;-78
2022/09/03 07:06:07;;;;;;;15.02;8.77;;;21.60;99.90;;;;;;5011236;28;20034;-76
2022/09/03 07:08:34;;;;;;;16.02;7.75;;;21.40;99.90;;;;;;5011495;28;20384;-79
2022/09/03 07:11:07;;;;;;;16.10;8.02;;;21.20;99.90;;;;;;5011136;28;20468;-79
2022/09/03 07:13:39;;;;;;;13.27;8.65;;;21.50;99.90;;;;;;5011536;28;20034;-78
2022/09/03 07:16:26;;;;;;;17.17;9.07;;;21.60;99.90;;;;;;5011194;28;20512;-80
2022/09/03 07:18:52;;;;;;;16.05;7.55;;;21.60;99.90;;;;;;5008731;28;20553;-79
2022/09/03 07:21:20;;;;;;;14.27;7.35;;;21.50;99.90;;;;;;5009881;28;20062;-80
2022/09/03 07:23:48;;;;;;;13.70;8.35;;;21.20;99.90;;;;;;5011371;28;20473;-79
2022/09/03 07:26:16;;;;;;;15.07;6.78;;;21.20;99.90;;;;;;5012170;28;20097;-79
2022/09/03 07:28:44;;;;;;;12.00;6.28;;;21.40;99.90;;;;;;5011964;28;20033;-81
2022/09/03 07:31:24;;;;;;;16.42;7.28;;;21.50;99.90;;;;;;5012552;28;20022;-80
2022/09/03 07:33:56;;;;;;;12.98;7.28;;;21.60;99.90;;;;;;5012564;28;20058;-79
2022/09/03 07:36:23;;;;;;;12.50;6.47;;;21.70;99.90;;;;;;5012222;28;20102;-79
2022/09/03 07:38:50;;;;;;;12.32;6.85;;;22.00;99.90;;;;;;5012465;28;20042;-77
2022/09/03 07:41:16;;;;;;;12.55;6.50;;;21.90;99.90;;;;;;5012333;28;20061;-79
2022/09/03 07:43:45;;;;;;;11.27;6.55;;;21.90;99.90;;;;;;5011331;28;20484;-79
2022/09/03 07:46:21;;;;;;;12.52;7.13;;;22.00;99.90;;;;;;5011184;28;20037;-80
2022/09/03 07:48:49;;;;;;;9.45;6.13;;;22.10;99.90;;;;;;5012105;28;20396;-79
2022/09/03 07:51:16;;;;;;;9.95;5.50;;;21.80;99.90;;;;;;5011967;28;20033;-79
2022/09/03 07:53:43;;;;;;;13.35;5.13;;;21.90;99.90;;;;;;5011373;28;20551;-79
2022/09/03 07:56:10;;;;;;;9.48;4.38;;;21.40;99.90;;;;;;5012127;28;20060;-79
2022/09/03 07:58:37;;;;;;;10.35;5.20;;;21.40;99.90;;;;;;5011835;28;20118;-79
2022/09/03 08:01:07;;;;;;;8.23;4.95;;;21.30;99.90;;;;;;5012478;28;20104;-79
2022/09/03 08:03:36;;;;;;;10.88;5.50;;;21.60;99.90;;;;;;5012225;28;20037;-79
2022/09/03 08:06:04;;;;;;;9.20;5.18;;;22.00;99.90;;;;;;5011580;28;20093;-79
2022/09/03 08:08:31;;;;;;;8.68;5.22;;;22.40;99.90;;;;;;5011767;28;20029;-79
2022/09/03 08:11:15;;;;;;;10.95;5.60;;;22.70;99.90;;;;;;5011613;28;20033;-78
2022/09/03 08:13:43;;;;;;;6.65;3.80;;;22.90;99.90;;;;;;5010284;28;20090;-79
2022/09/03 08:16:10;;;;;;;7.15;4.32;;;22.90;99.90;;;;;;5012045;28;20072;-79
2022/09/03 08:18:37;;;;;;;10.70;5.13;;;22.90;99.90;;;;;;5014948;28;20084;-79
2022/09/03 08:21:15;;;;;;;10.57;5.70;;;23.10;99.90;;;;;;5014984;28;20036;-79
2022/09/03 08:23:46;;;;;;;12.75;5.32;;;22.90;99.90;;;;;;5015614;28;20033;-79
2022/09/03 08:26:14;;;;;;;12.82;6.22;;;22.90;99.90;;;;;;5015812;28;20029;-76
2022/09/03 08:28:42;;;;;;;9.25;5.18;;;23.00;99.90;;;;;;5015466;28;20441;-79
2022/09/03 08:31:11;;;;;;;10.75;5.50;;;23.20;99.90;;;;;;5015470;28;20108;-79
2022/09/03 08:33:41;;;;;;;8.90;5.20;;;22.90;99.90;;;;;;5012811;28;20054;-79
2022/09/03 08:36:12;;;;;;;8.80;5.25;;;23.20;99.90;;;;;;5014953;28;20026;-79
2022/09/03 08:38:41;;;;;;;8.75;5.40;;;23.40;99.90;;;;;;5014976;28;20034;-80
2022/09/03 08:41:29;;;;;;;9.27;5.30;;;23.30;99.90;;;;;;5015129;28;20399;-79
2022/09/03 08:44:12;;;;;;;10.77;5.15;;;23.30;99.90;;;;;;5015303;28;20387;-79
2022/09/03 08:47:01;;;;;;;7.40;4.53;;;;;;;;;;5015337;28;20045;-79
2022/09/03 08:49:33;;;;;;;8.32;4.93;;;23.50;99.90;;;;;;5013937;28;20476;-79
2022/09/03 08:52:03;;;;;;;10.25;4.85;;;23.30;99.90;;;;;;5014819;28;20030;-79
2022/09/03 08:54:31;;;;;;;12.55;4.68;;;23.30;99.90;;;;;;5014488;28;20461;-80
2022/09/03 08:57:01;;;;;;;9.82;4.80;;;23.60;99.90;;;;;;5014974;28;20066;-80
2022/09/03 08:59:29;;;;;;;8.32;4.85;;;23.90;99.90;;;;;;5014694;28;20065;-79
2022/09/03 09:02:17;;;;;;;12.02;4.35;;;24.10;99.90;;;;;;5014710;28;20105;-78
2022/09/03 09:04:54;;;;;;;10.32;4.60;;;23.70;99.90;;;;;;5012674;28;20098;-78
2022/09/03 09:07:42;;;;;;;9.48;4.93;;;23.80;99.90;;;;;;5022596;28;20361;-77
2022/09/03 09:10:47;;;;;;;8.85;4.82;;;23.60;99.90;;;;;;5016694;28;20029;-80
2022/09/03 09:13:32;;;;;;;12.88;4.75;;;23.50;99.90;;;;;;4934300;29;20036;-75
2022/09/03 09:16:23;;;;;;;24.35;6.03;;;23.70;99.50;;;;;;4921666;29;20032;-79
2022/09/03 09:19:12;;;;;;;9.60;5.10;;;23.60;99.90;;;;;;4934512;29;20062;-74
2022/09/03 09:21:57;;;;;;;10.98;4.50;;;23.70;99.90;;;;;;4934828;29;20051;-79
2022/09/03 09:24:25;;;;;;;9.82;4.72;;;23.70;99.90;;;;;;4934527;29;20131;-80
2022/09/03 09:27:16;;;;;;;9.23;4.03;;;23.60;99.90;;;;;;4934686;29;20142;-79
2022/09/03 09:29:46;;;;;;;13.32;5.20;;;23.50;99.90;;;;;;4944093;28;20038;-79
2022/09/03 09:32:16;;;;;;;12.48;5.05;;;23.40;99.90;;;;;;4934144;29;20035;-81
2022/09/03 09:34:42;;;;;;;11.63;4.47;;;23.50;99.90;;;;;;4931923;29;20039;-79
2022/09/03 09:37:12;;;;;;;10.50;4.47;;;23.70;99.90;;;;;;4933245;29;20052;-81
2022/09/03 09:39:39;;;;;;;5.88;3.75;;;23.70;99.90;;;;;;4932481;29;20090;-82
2022/09/03 09:42:11;;;;;;;19.40;4.55;;;23.80;99.50;;;;;;4932951;29;20024;-79
2022/09/03 09:44:39;;;;;;;7.78;4.10;;;24.00;99.80;;;;;;4979062;28;20030;-80
2022/09/03 09:47:10;;;;;;;8.05;3.80;;;24.00;99.90;;;;;;4992649;28;20101;-78
2022/09/03 09:49:58;;;;;;;8.25;3.97;;;24.10;99.90;;;;;;4996598;28;20123;-80
2022/09/03 09:52:30;;;;;;;37.22;6.80;;;24.40;99.30;;;;;;5024844;28;20124;-78
2022/09/03 09:55:18;;;;;;;8.18;4.00;;;24.40;95.30;;;;;;5014392;28;20368;-81
2022/09/03 09:57:44;;;;;;;9.10;3.60;;;24.50;99.20;;;;;;5013030;28;20049;-80
2022/09/03 10:00:18;;;;;;;7.00;3.45;;;24.80;99.90;;;;;;5013675;28;20021;-81
2022/09/03 10:02:53;;;;;;;10.50;3.72;;;;;;;;;;5013628;28;20483;-71
2022/09/03 10:05:32;;;;;;;5.35;2.72;;;24.70;97.30;;;;;;5023079;28;20038;-81
2022/09/03 10:08:04;;;;;;;24.38;12.65;;;24.70;99.20;;;;;;5014040;28;20535;-82
2022/09/03 10:10:43;;;;;;;10.27;6.13;;;24.60;99.60;;;;;;5013442;28;20496;-82
2022/09/03 10:13:39;;;;;;;9.57;4.57;;;24.80;99.90;;;;;;5013430;28;20069;-79
2022/09/03 10:16:21;;;;;;;14.05;5.85;;;24.60;99.90;;;;;;5012982;28;20026;-81
2022/09/03 10:19:19;;;;;;;6.28;4.05;;;24.20;99.90;;;;;;5012814;28;20469;-73
2022/09/03 10:22:08;;;;;;;9.90;5.82;;;23.90;99.90;;;;;;4970938;28;20046;-76
2022/09/03 10:24:56;;;;;;;6.80;4.25;;;24.10;99.90;;;;;;4971611;28;20027;-76
2022/09/03 10:27:22;;;;;;;4.55;3.60;;;24.20;95.80;;;;;;4972506;28;20030;-79
2022/09/03 10:29:49;;;;;;;5.88;3.03;;;24.40;94.70;;;;;;4974098;28;20029;-81
2022/09/03 10:32:38;;;;;;;7.57;3.70;;;24.50;94.10;;;;;;4979213;28;20117;-80
2022/09/03 10:35:27;;;;;;;5.90;3.88;;;24.60;96.30;;;;;;4970678;28;20130;-79
2022/09/03 10:38:28;;;;;;;7.22;3.50;;;24.70;96.50;;;;;;4971196;28;20046;-79
2022/09/03 10:41:07;;;;;;;5.30;3.38;;;24.90;99.20;;;;;;4970611;28;20038;-81
2022/09/03 10:43:51;;;;;;;6.35;4.38;;;24.60;93.80;;;;;;4971364;28;20397;-82
2022/09/03 10:46:25;;;;;;;16.17;4.55;;;24.30;97.60;;;;;;4969795;28;20034;-81
2022/09/03 10:49:13;;;;;;;9.25;4.43;;;24.00;96.80;;;;;;4969087;28;20106;-80
2022/09/03 10:51:51;;;;;;;10.85;4.03;;;23.70;97.80;;;;;;4971005;28;20046;-81
2022/09/03 10:54:51;;;;;;;82.53;8.30;;;23.70;98.40;;;;;;4971619;28;20030;-81
2022/09/03 10:57:39;;;;;;;9.45;4.15;;;23.70;95.90;;;;;;4976278;28;20685;-81
2022/09/03 11:00:13;;;;;;;6.82;3.90;;;23.80;97.60;;;;;;5012810;28;20109;-80
2022/09/03 11:02:54;;;;;;;6.72;4.13;;;24.00;97.00;;;;;;5015710;28;20061;-81
2022/09/03 11:05:23;;;;;;;7.93;4.20;;;24.10;96.80;;;;;;5012680;28;20036;-77
2022/09/03 11:07:55;;;;;;;8.85;4.53;;;24.20;96.40;;;;;;5011304;28;20421;-79
2022/09/03 11:10:34;;;;;;;12.00;3.65;;;24.30;96.30;;;;;;5012654;28;20423;-77
2022/09/03 11:13:09;;;;;;;9.52;3.67;;;24.60;98.40;;;;;;5012413;28;20030;-79
2022/09/03 11:15:50;;;;;;;10.50;4.00;;;24.80;96.70;;;;;;5012104;28;20033;-81
2022/09/03 11:18:48;;;;;;;8.75;3.70;;;25.00;99.90;;;;;;5012259;28;20049;-77
2022/09/03 11:21:20;;;;;;;27.92;7.63;;;25.20;99.90;;;;;;5010157;28;20046;-82
2022/09/03 11:23:59;;;;;;;175.25;27.85;;;25.50;99.90;;;;;;5012121;28;20096;-81
2022/09/03 11:26:26;;;;;;;14.20;4.53;;;25.60;99.70;;;;;;5012194;28;20026;-80
2022/09/03 11:28:52;;;;;;;12.13;3.90;;;25.60;99.90;;;;;;5012159;28;20018;-79
2022/09/03 11:31:30;;;;;;;22.52;5.38;;;25.60;99.50;;;;;;5012339;28;20072;-82
2022/09/03 11:34:05;;;;;;;8.73;4.55;;;25.70;99.90;;;;;;5012194;28;20030;-81
2022/09/03 11:36:37;;;;;;;13.45;8.07;;;25.80;99.90;;;;;;5012478;28;20037;-82
2022/09/03 11:39:42;;;;;;;12.13;5.88;;;25.80;99.90;;;;;;5012115;28;20029;-76
2022/09/03 11:42:21;;;;;;;34.38;6.70;;;25.70;99.90;;;;;;5011694;28;20400;-75
2022/09/03 11:44:53;;;;;;;12.68;5.32;;;25.50;99.90;;;;;;5010485;28;20536;-75
2022/09/03 11:47:18;;;;;;;8.63;3.67;;;25.60;99.90;;;;;;5011745;28;20061;-76
2022/09/03 11:49:49;;;;;;;19.42;5.78;;;25.60;99.90;;;;;;5011486;28;20065;-77
2022/09/03 11:52:28;;;;;;;5.65;3.22;;;25.70;99.90;;;;;;5006557;28;20019;-76
2022/09/03 11:54:54;;;;;;;8.55;3.50;;;25.60;99.90;;;;;;4995359;28;20054;-75
2022/09/03 11:57:30;;;;;;;18.83;5.22;;;25.50;99.90;;;;;;4997773;28;20546;-77
2022/09/03 12:00:11;;;;;;;7.72;3.40;;;25.60;99.90;;;;;;4997073;28;20101;-82
2022/09/03 12:02:44;;;;;;;7.70;3.38;;;25.80;99.90;;;;;;4997622;28;20037;-76
2022/09/03 12:05:21;;;;;;;10.48;3.55;;;25.50;99.90;;;;;;4998246;28;20034;-72
2022/09/03 12:07:47;;;;;;;7.43;3.33;;;25.40;99.90;;;;;;5016844;28;20084;-74
2022/09/03 12:10:23;;;;;;;5.10;3.30;;;25.40;99.90;;;;;;5015368;28;20508;-75
2022/09/03 12:13:01;;;;;;;65.25;8.48;;;25.60;99.90;;;;;;5015517;28;20480;-74
2022/09/03 12:15:51;;;;;;;12.32;3.70;;;25.80;99.90;;;;;;5015505;28;20080;-75
2022/09/03 12:18:28;;;;;;;30.58;4.80;;;25.30;99.90;;;;;;5015128;28;20399;-75
2022/09/03 12:20:58;;;;;;;34.85;5.70;;;25.30;99.60;;;;;;5015316;28;20485;-75
2022/09/03 12:23:29;;;;;;;12.38;4.25;;;25.40;99.90;;;;;;5014998;28;20026;-75
2022/09/03 12:25:57;;;;;;;27.10;6.03;;;25.60;99.90;;;;;;5015339;28;20057;-76
2022/09/03 12:28:25;;;;;;;11.10;3.88;;;25.40;99.90;;;;;;5015157;28;20072;-76
2022/09/03 12:30:52;;;;;;;14.25;3.45;;;25.30;99.40;;;;;;5015396;28;20038;-75
2022/09/03 12:33:20;;;;;;;8.25;2.97;;;24.90;99.90;;;;;;5015193;28;20125;-76
2022/09/03 12:36:00;;;;;;;5.50;3.10;;;24.90;98.60;;;;;;5015335;28;20018;-75
2022/09/03 12:38:32;;;;;;;9.07;4.03;;;24.50;99.90;;;;;;5014970;28;20029;-76
2022/09/03 12:40:58;;;;;;;13.50;4.55;;;24.50;99.90;;;;;;5014936;28;20403;-75
2022/09/03 12:43:28;;;;;;;9.20;3.30;;;24.60;99.70;;;;;;5014191;28;20034;-76
2022/09/03 12:45:55;;;;;;;148.82;16.67;;;24.50;96.60;;;;;;5014226;28;20108;-76
2022/09/03 12:48:21;;;;;;;11.45;4.13;;;24.60;95.40;;;;;;5014570;28;20038;-75
2022/09/03 12:50:59;;;;;;;26.73;5.65;;;24.50;99.20;;;;;;5014635;28;20026;-75
2022/09/03 12:53:26;;;;;;;33.80;6.07;;;24.60;97.90;;;;;;5014475;28;20026;-76
2022/09/03 12:55:58;;;;;;;8.95;4.00;;;24.50;97.80;;;;;;5014316;28;20480;-74
2022/09/03 12:58:38;;;;;;;20.65;11.35;;;24.50;98.20;;;;;;4995059;28;20480;-76
2022/09/03 13:01:08;;;;;;;20.80;9.82;;;24.50;95.70;;;;;;4995465;28;20029;-75
2022/09/03 13:04:10;;;;;;;12.25;5.80;;;24.40;95.80;;;;;;5012265;28;20079;-74
2022/09/03 13:07:02;;;;;;;31.80;5.95;;;24.50;96.40;;;;;;4972202;28;20039;-75
2022/09/03 13:09:31;;;;;;;61.85;11.77;;;24.40;96.60;;;;;;4972695;28;20033;-75
2022/09/03 13:12:04;;;;;;;97.85;14.48;;;24.30;95.70;;;;;;4972562;28;20081;-76